createdAt,value
2022-10-23T00:01:14.124Z,19.35
2022-10-23T00:03:40.789Z,19.46
2022-10-23T00:06:08.063Z,19.33
2022-10-23T00:08:34.793Z,19.30
2022-10-23T00:11:01.302Z,19.27
2022-10-23T00:13:27.799Z,19.42
2022-10-23T00:15:58.287Z,19.28
2022-10-23T00:18:24.760Z,19.41
2022-10-23T00:20:51.330Z,19.62
2022-10-23T00:23:17.839Z,19.38
2022-10-23T00:25:44.299Z,19.32
2022-10-23T00:28:10.936Z,19.24
2022-10-23T00:30:40.565Z,19.24
2022-10-23T00:33:08.360Z,19.27
2022-10-23T00:35:34.871Z,19.30
2022-10-23T00:38:02.371Z,19.22
2022-10-23T00:40:28.967Z,19.42
2022-10-23T00:42:55.674Z,19.50
2022-10-23T00:45:28.112Z,19.26
2022-10-23T00:47:55.406Z,19.11
2022-10-23T00:50:24.942Z,18.98
2022-10-23T00:52:57.257Z,18.82
2022-10-23T00:55:28.424Z,18.72
2022-10-23T00:57:55.739Z,18.53
2022-10-23T01:00:28.374Z,18.43
2022-10-23T01:02:56.557Z,18.49
2022-10-23T01:05:29.998Z,18.60
2022-10-23T01:08:24.625Z,18.83
2022-10-23T01:11:03.914Z,18.42
2022-10-23T01:13:54.579Z,18.23
2022-10-23T01:16:26.963Z,18.20
2022-10-23T01:19:16.639Z,18.10
2022-10-23T01:22:09.008Z,17.94
2022-10-23T01:24:42.989Z,18.36
2022-10-23T01:27:30.831Z,18.33
2022-10-23T01:30:07.702Z,18.17
2022-10-23T01:32:52.313Z,18.08
2022-10-23T01:35:24.598Z,18.14
2022-10-23T01:38:09.473Z,18.12
2022-10-23T01:41:04.754Z,18.08
2022-10-23T01:44:06.214Z,18.07
2022-10-23T01:46:35.692Z,18.12
2022-10-23T01:49:05.734Z,18.11
2022-10-23T01:51:35.220Z,18.18
2022-10-23T01:54:05.594Z,18.28
2022-10-23T01:56:34.953Z,18.16
2022-10-23T01:59:06.187Z,18.09
2022-10-23T02:01:34.659Z,18.13
2022-10-23T02:04:08.351Z,18.07
2022-10-23T02:06:34.922Z,18.17
2022-10-23T02:09:01.550Z,18.14
2022-10-23T02:11:28.003Z,18.11
2022-10-23T02:14:03.574Z,18.15
2022-10-23T02:16:42.101Z,18.10
2022-10-23T02:19:36.057Z,17.95
2022-10-23T02:22:19.168Z,17.78
2022-10-23T02:24:51.819Z,17.80
2022-10-23T02:27:28.666Z,18.03
2022-10-23T02:30:01.504Z,17.95
2022-10-23T02:32:29.216Z,17.88
2022-10-23T02:34:56.214Z,17.85
2022-10-23T02:37:22.993Z,17.83
2022-10-23T02:39:51.668Z,18.08
2022-10-23T02:42:45.401Z,18.05
2022-10-23T02:45:34.893Z,17.93
2022-10-23T02:48:16.845Z,17.83
2022-10-23T02:51:03.848Z,18.00
2022-10-23T02:53:52.151Z,17.88
2022-10-23T02:56:28.985Z,17.89
2022-10-23T02:59:19.393Z,17.96
2022-10-23T03:01:53.341Z,17.86
2022-10-23T03:04:24.248Z,17.87
2022-10-23T03:06:51.982Z,17.86
2022-10-23T03:09:20.331Z,17.86
2022-10-23T03:11:46.905Z,17.91
2022-10-23T03:14:16.485Z,18.00
2022-10-23T03:16:43.191Z,17.92
2022-10-23T03:21:43.383Z,17.96
2022-10-23T03:24:12.338Z,17.97
2022-10-23T03:26:39.003Z,17.94
2022-10-23T03:29:05.642Z,17.99
2022-10-23T03:31:32.327Z,18.11
2022-10-23T03:34:08.138Z,17.94
2022-10-23T03:36:35.027Z,18.01
2022-10-23T03:39:01.670Z,17.88
2022-10-23T03:41:28.223Z,17.96
2022-10-23T03:43:58.180Z,17.94
2022-10-23T03:46:24.971Z,17.78
2022-10-23T03:48:51.749Z,17.95
2022-10-23T03:51:18.392Z,17.93
2022-10-23T03:53:44.984Z,17.98
2022-10-23T03:56:11.760Z,17.99
2022-10-23T03:58:38.419Z,17.94
2022-10-23T04:01:07.376Z,17.90
2022-10-23T04:03:34.215Z,18.16
2022-10-23T04:06:01.203Z,18.03
2022-10-23T04:08:31.054Z,18.22
2022-10-23T04:10:57.606Z,17.94
2022-10-23T04:13:25.686Z,17.88
2022-10-23T04:15:56.223Z,17.92
2022-10-23T04:18:23.493Z,17.64
2022-10-23T04:20:50.559Z,17.57
2022-10-23T04:23:20.023Z,17.61
2022-10-23T04:28:14.611Z,17.61
2022-10-23T04:30:41.665Z,17.60
2022-10-23T04:33:08.170Z,17.79
2022-10-23T04:35:34.708Z,17.88
2022-10-23T04:38:01.131Z,17.71
2022-10-23T04:40:27.650Z,17.80
2022-10-23T04:42:54.128Z,17.67
2022-10-23T04:45:20.655Z,17.55
2022-10-23T04:47:47.222Z,17.40
2022-10-23T04:50:13.748Z,17.44
2022-10-23T04:52:40.522Z,17.49
2022-10-23T04:55:08.275Z,17.37
2022-10-23T04:57:34.709Z,17.51
2022-10-23T05:00:01.422Z,17.42
2022-10-23T05:02:27.896Z,17.46
2022-10-23T05:04:54.631Z,17.43
2022-10-23T05:09:48.543Z,17.56
2022-10-23T05:12:15.337Z,17.61
2022-10-23T05:18:28.347Z,17.42
2022-10-23T05:21:20.131Z,17.30
2022-10-23T05:23:47.383Z,17.56
2022-10-23T05:26:14.238Z,17.51
2022-10-23T05:28:40.728Z,17.45
2022-10-23T05:31:07.404Z,17.39
2022-10-23T05:33:56.479Z,17.34
2022-10-23T05:36:24.825Z,17.34
2022-10-23T05:38:52.026Z,17.51
2022-10-23T05:41:18.683Z,17.34
2022-10-23T05:43:46.272Z,17.21
2022-10-23T05:46:12.933Z,17.23
2022-10-23T05:48:41.576Z,17.17
2022-10-23T05:51:10.530Z,17.36
2022-10-23T05:53:40.135Z,17.33
2022-10-23T05:56:09.390Z,17.13
2022-10-23T05:58:36.253Z,17.21
2022-10-23T06:01:14.324Z,17.27
2022-10-23T06:03:43.684Z,17.29
2022-10-23T06:06:10.247Z,17.11
2022-10-23T06:08:36.939Z,17.15
2022-10-23T06:11:12.207Z,17.10
2022-10-23T06:13:39.533Z,17.02
2022-10-23T06:16:10.888Z,16.99
2022-10-23T06:18:37.593Z,17.13
2022-10-23T06:21:04.679Z,17.23
2022-10-23T06:23:35.608Z,17.29
2022-10-23T06:26:03.111Z,17.10
2022-10-23T06:28:29.839Z,17.09
2022-10-23T06:30:59.434Z,17.05
2022-10-23T06:33:28.988Z,17.09
2022-10-23T06:35:58.343Z,17.05
2022-10-23T06:38:25.686Z,17.13
2022-10-23T06:40:57.072Z,17.41
2022-10-23T06:43:23.863Z,17.17
2022-10-23T06:45:50.593Z,17.15
2022-10-23T06:48:17.281Z,17.20
2022-10-23T06:50:43.930Z,17.17
2022-10-23T06:53:15.192Z,17.17
2022-10-23T06:55:41.859Z,17.11
2022-10-23T06:58:10.894Z,17.31
2022-10-23T07:00:40.565Z,17.82
2022-10-23T07:03:09.089Z,17.46
2022-10-23T07:05:36.005Z,17.53
2022-10-23T07:08:05.224Z,17.46
2022-10-23T07:10:32.125Z,17.34
2022-10-23T07:13:01.185Z,17.36
2022-10-23T07:15:28.123Z,17.45
2022-10-23T07:17:56.066Z,17.35
2022-10-23T07:20:25.545Z,17.91
2022-10-23T07:22:57.056Z,17.97
2022-10-23T07:25:25.326Z,17.92
2022-10-23T07:27:53.477Z,17.81
2022-10-23T07:30:20.108Z,18.08
2022-10-23T07:32:52.664Z,18.02
2022-10-23T07:35:22.648Z,18.05
2022-10-23T07:37:52.870Z,18.20
2022-10-23T07:40:19.711Z,17.98
2022-10-23T07:42:54.067Z,17.88
2022-10-23T07:45:20.793Z,18.06
2022-10-23T07:47:52.099Z,18.18
2022-10-23T07:50:23.832Z,18.15
2022-10-23T07:52:53.579Z,18.02
2022-10-23T07:55:20.202Z,18.51
2022-10-23T07:57:49.676Z,18.39
2022-10-23T08:00:18.522Z,18.39
2022-10-23T08:02:45.380Z,18.43
2022-10-23T08:05:16.691Z,18.49
2022-10-23T08:07:51.855Z,18.49
2022-10-23T08:10:27.322Z,18.60
2022-10-23T08:12:53.989Z,18.64
2022-10-23T08:15:20.634Z,18.98
2022-10-23T08:17:47.200Z,18.91
2022-10-23T08:20:13.799Z,18.95
2022-10-23T08:22:41.118Z,18.86
2022-10-23T08:25:08.143Z,18.86
2022-10-23T08:27:34.851Z,18.93
2022-10-23T08:30:01.482Z,19.07
2022-10-23T08:32:31.872Z,19.14
2022-10-23T08:35:01.140Z,19.41
2022-10-23T08:37:28.832Z,19.31
2022-10-23T08:39:56.365Z,19.27
2022-10-23T08:42:31.300Z,19.39
2022-10-23T08:45:22.160Z,19.45
2022-10-23T08:47:58.585Z,19.52
2022-10-23T08:50:46.772Z,19.53
2022-10-23T08:53:26.700Z,19.81
2022-10-23T08:56:07.739Z,19.68
2022-10-23T08:58:37.392Z,19.76
2022-10-23T09:01:29.376Z,19.78
2022-10-23T09:03:58.602Z,19.71
2022-10-23T09:06:48.267Z,19.76
2022-10-23T09:09:40.917Z,20.04
2022-10-23T09:12:15.358Z,19.99
2022-10-23T09:14:53.831Z,19.98
2022-10-23T09:17:28.859Z,20.03
2022-10-23T09:20:13.046Z,20.10
2022-10-23T09:22:41.054Z,20.20
2022-10-23T09:25:22.077Z,20.26
2022-10-23T09:27:54.976Z,20.37
2022-10-23T09:30:41.518Z,20.49
2022-10-23T09:33:22.431Z,20.75
2022-10-23T09:35:55.766Z,20.93
2022-10-23T09:38:33.548Z,21.01
2022-10-23T09:41:13.660Z,21.14
2022-10-23T09:43:40.271Z,21.16
2022-10-23T09:46:28.285Z,21.32
2022-10-23T09:49:00.889Z,21.42
2022-10-23T09:51:30.675Z,21.75
2022-10-23T09:53:58.797Z,21.92
2022-10-23T09:56:36.542Z,21.71
2022-10-23T09:59:22.430Z,21.77
2022-10-23T10:02:00.827Z,21.75
2022-10-23T10:04:41.646Z,21.92
2022-10-23T10:07:31.125Z,22.04
2022-10-23T10:10:00.284Z,22.28
2022-10-23T10:12:37.704Z,22.47
2022-10-23T10:15:43.126Z,22.62
2022-10-23T10:18:34.812Z,22.55
2022-10-23T10:21:01.455Z,22.64
2022-10-23T10:23:53.688Z,22.50
2022-10-23T10:26:43.108Z,22.70
2022-10-23T10:29:29.949Z,22.74
2022-10-23T10:32:12.042Z,22.85
2022-10-23T10:35:02.912Z,22.90
2022-10-23T10:37:59.814Z,22.79
2022-10-23T10:40:32.734Z,22.80
2022-10-23T10:43:02.757Z,22.80
2022-10-23T10:46:04.811Z,22.63
2022-10-23T10:48:48.947Z,22.64
2022-10-23T10:51:37.417Z,22.80
2022-10-23T10:54:29.671Z,22.76
2022-10-23T10:57:03.078Z,22.47
2022-10-23T10:59:38.068Z,22.77
2022-10-23T11:02:26.384Z,22.76
2022-10-23T11:04:54.719Z,22.69
2022-10-23T11:07:26.861Z,22.50
2022-10-23T11:09:54.606Z,22.57
2022-10-23T11:12:25.095Z,22.54
2022-10-23T11:14:54.395Z,22.65
2022-10-23T11:17:39.017Z,22.69
2022-10-23T11:20:39.959Z,22.80
2022-10-23T11:23:28.478Z,22.99
2022-10-23T11:26:09.769Z,22.99
2022-10-23T11:28:53.625Z,22.99
2022-10-23T11:31:58.396Z,22.84
2022-10-23T11:34:51.110Z,23.01
2022-10-23T11:37:19.733Z,22.91
2022-10-23T11:40:23.964Z,23.09
2022-10-23T11:42:54.903Z,23.01
2022-10-23T11:45:39.128Z,22.88
2022-10-23T11:48:18.592Z,23.06
2022-10-23T11:50:45.294Z,22.92
2022-10-23T11:53:31.167Z,22.83
2022-10-23T11:56:12.732Z,22.83
2022-10-23T11:58:49.843Z,22.78
2022-10-23T12:01:32.572Z,22.76
2022-10-23T12:04:06.722Z,22.75
2022-10-23T12:06:41.771Z,23.05
2022-10-23T12:09:22.136Z,22.79
2022-10-23T12:12:01.443Z,22.81
2022-10-23T12:14:33.817Z,22.71
2022-10-23T12:17:01.265Z,22.75
2022-10-23T12:19:47.919Z,22.72
2022-10-23T12:22:14.970Z,22.68
2022-10-23T12:25:17.510Z,22.67
2022-10-23T12:28:05.832Z,22.63
2022-10-23T12:31:05.761Z,22.65
2022-10-23T12:34:03.174Z,22.73
2022-10-23T12:37:11.882Z,22.62
2022-10-23T12:39:40.169Z,22.62
2022-10-23T12:42:16.177Z,22.67
2022-10-23T12:44:43.085Z,22.71
2022-10-23T12:47:18.889Z,22.69
2022-10-23T12:49:50.785Z,22.78
2022-10-23T12:52:21.755Z,22.69
2022-10-23T12:54:50.894Z,22.70
2022-10-23T12:57:25.978Z,22.72
2022-10-23T13:00:02.572Z,22.70
2022-10-23T13:02:32.694Z,22.72
2022-10-23T13:05:06.678Z,22.70
2022-10-23T13:07:37.929Z,22.73
2022-10-23T13:10:05.808Z,22.63
2022-10-23T13:12:38.698Z,22.62
2022-10-23T13:15:08.417Z,22.63
2022-10-23T13:17:47.546Z,22.66
2022-10-23T13:20:17.727Z,22.68
2022-10-23T13:22:49.591Z,22.83
2022-10-23T13:25:25.322Z,22.65
2022-10-23T13:28:04.470Z,22.58
2022-10-23T13:30:34.035Z,22.66
2022-10-23T13:33:01.986Z,22.61
2022-10-23T13:35:29.500Z,22.62
2022-10-23T13:37:56.280Z,22.61
2022-10-23T13:40:25.334Z,22.58
2022-10-23T13:42:54.652Z,22.58
2022-10-23T13:45:29.907Z,22.58
2022-10-23T13:47:56.445Z,22.50
2022-10-23T13:50:23.042Z,22.49
2022-10-23T13:52:49.520Z,22.50
2022-10-23T13:55:26.434Z,22.55
2022-10-23T13:57:53.019Z,22.58
2022-10-23T14:00:19.827Z,22.51
2022-10-23T14:02:46.604Z,22.49
2022-10-23T14:05:17.290Z,22.49
2022-10-23T14:07:44.206Z,22.44
2022-10-23T14:10:11.061Z,22.45
2022-10-23T14:12:42.994Z,22.48
2022-10-23T14:15:11.209Z,22.44
2022-10-23T14:17:38.462Z,22.46
2022-10-23T14:20:06.745Z,22.41
2022-10-23T14:22:34.101Z,22.43
2022-10-23T14:25:01.949Z,22.49
2022-10-23T14:27:34.733Z,22.52
2022-10-23T14:30:04.486Z,22.61
2022-10-23T14:32:31.465Z,22.57
2022-10-23T14:34:58.740Z,22.56
2022-10-23T14:37:25.386Z,22.68
2022-10-23T14:39:52.024Z,22.59
2022-10-23T14:42:34.959Z,22.55
2022-10-23T14:45:08.300Z,22.52
2022-10-23T14:47:34.936Z,22.56
2022-10-23T14:50:01.741Z,22.48
2022-10-23T14:52:31.100Z,22.38
2022-10-23T14:54:58.009Z,22.40
2022-10-23T14:57:25.661Z,22.38
2022-10-23T14:59:53.214Z,22.41
2022-10-23T15:02:19.931Z,22.37
2022-10-23T15:04:48.142Z,22.29
2022-10-23T15:07:16.090Z,22.33
2022-10-23T15:09:42.786Z,22.34
2022-10-23T15:12:09.468Z,22.33
2022-10-23T15:14:36.212Z,22.39
2022-10-23T15:17:05.894Z,22.33
2022-10-23T15:19:36.155Z,22.26
2022-10-23T15:22:02.879Z,22.29
2022-10-23T15:24:29.865Z,22.26
2022-10-23T15:26:57.255Z,22.27
2022-10-23T15:29:24.083Z,22.29
2022-10-23T15:31:57.520Z,22.32
2022-10-23T15:34:26.629Z,22.25
2022-10-23T15:36:54.821Z,22.24
2022-10-23T15:39:27.291Z,22.18
2022-10-23T15:41:56.460Z,22.13
2022-10-23T15:44:28.991Z,22.10
2022-10-23T15:47:02.319Z,22.07
2022-10-23T15:49:30.060Z,22.03
2022-10-23T15:52:00.443Z,21.95
2022-10-23T15:54:30.458Z,21.93
2022-10-23T15:57:08.251Z,21.87
2022-10-23T15:59:36.028Z,21.85
2022-10-23T16:02:03.133Z,21.77
2022-10-23T16:04:35.623Z,21.73
2022-10-23T16:07:02.317Z,21.71
2022-10-23T16:09:29.899Z,21.72
2022-10-23T16:11:56.773Z,21.69
2022-10-23T16:14:23.354Z,21.66
2022-10-23T16:16:49.975Z,21.58
2022-10-23T16:19:18.103Z,21.57
2022-10-23T16:21:44.714Z,21.53
2022-10-23T16:24:11.901Z,21.48
2022-10-23T16:26:41.334Z,21.48
2022-10-23T16:29:09.524Z,21.46
2022-10-23T16:31:36.484Z,21.43
2022-10-23T16:34:04.858Z,21.39
2022-10-23T16:36:31.443Z,21.33
2022-10-23T16:38:58.242Z,21.29
2022-10-23T16:41:24.847Z,21.27
2022-10-23T16:43:51.338Z,21.20
2022-10-23T16:46:20.533Z,21.16
2022-10-23T16:48:47.761Z,21.19
2022-10-23T16:51:18.628Z,21.13
2022-10-23T16:53:48.732Z,21.14
2022-10-23T16:56:18.224Z,21.18
2022-10-23T16:58:47.741Z,21.08
2022-10-23T17:01:17.145Z,21.04
2022-10-23T17:03:48.125Z,20.97
2022-10-23T17:06:23.219Z,20.90
2022-10-23T17:08:50.334Z,20.84
2022-10-23T17:11:20.268Z,20.84
2022-10-23T17:14:00.872Z,20.85
2022-10-23T17:16:37.516Z,20.78
2022-10-23T17:19:16.145Z,20.73
2022-10-23T17:21:57.372Z,20.71
2022-10-23T17:24:24.747Z,20.70
2022-10-23T17:26:54.776Z,20.79
2022-10-23T17:29:21.631Z,20.68
2022-10-23T17:31:56.375Z,20.69
2022-10-23T17:34:24.234Z,20.62
2022-10-23T17:36:54.922Z,20.57
2022-10-23T17:39:26.038Z,20.63
2022-10-23T17:41:53.350Z,20.63
2022-10-23T17:44:20.420Z,20.51
2022-10-23T17:46:53.168Z,20.50
2022-10-23T17:49:20.425Z,20.59
2022-10-23T17:51:50.371Z,20.60
2022-10-23T17:54:16.997Z,20.54
2022-10-23T17:56:45.485Z,20.48
2022-10-23T17:59:14.789Z,20.47
2022-10-23T18:01:43.874Z,20.43
2022-10-23T18:04:11.505Z,20.38
2022-10-23T18:06:44.375Z,20.35
2022-10-23T18:09:11.797Z,20.36
2022-10-23T18:11:46.898Z,20.35
2022-10-23T18:14:16.773Z,20.35
2022-10-23T18:16:45.723Z,20.30
2022-10-23T18:19:13.113Z,20.24
2022-10-23T18:21:40.293Z,20.20
2022-10-23T18:24:07.264Z,20.25
2022-10-23T18:26:35.317Z,20.27
2022-10-23T18:29:04.941Z,20.17
2022-10-23T18:31:31.795Z,20.20
2022-10-23T18:34:04.270Z,20.15
2022-10-23T18:36:35.197Z,20.21
2022-10-23T18:39:02.309Z,20.17
2022-10-23T18:41:34.286Z,20.16
2022-10-23T18:44:01.558Z,20.17
2022-10-23T18:46:29.707Z,20.13
2022-10-23T18:48:57.390Z,20.19
2022-10-23T18:51:30.007Z,20.12
2022-10-23T18:54:01.565Z,20.09
2022-10-23T18:56:28.184Z,20.07
2022-10-23T18:59:00.135Z,20.18
2022-10-23T19:01:28.151Z,20.14
2022-10-23T19:06:24.269Z,20.09
2022-10-23T19:08:51.633Z,20.04
2022-10-23T19:11:24.228Z,20.14
2022-10-23T19:13:51.433Z,20.12
2022-10-23T19:16:48.130Z,20.07
2022-10-23T19:19:30.124Z,20.01
2022-10-23T19:22:03.034Z,20.02
2022-10-23T19:24:38.225Z,19.95
2022-10-23T19:27:05.800Z,19.96
2022-10-23T19:29:35.698Z,19.94
2022-10-23T19:32:02.532Z,19.96
2022-10-23T19:34:29.532Z,19.93
2022-10-23T19:36:56.295Z,19.88
2022-10-23T19:39:25.394Z,19.79
2022-10-23T19:41:57.023Z,19.78
2022-10-23T19:44:23.820Z,19.76
2022-10-23T19:46:51.473Z,19.76
2022-10-23T19:49:18.690Z,19.77
2022-10-23T19:51:51.344Z,19.75
2022-10-23T19:54:20.967Z,19.72
2022-10-23T19:56:48.868Z,19.72
2022-10-23T19:59:16.581Z,19.70
2022-10-23T20:01:46.380Z,19.71
2022-10-23T20:04:17.658Z,19.74
2022-10-23T20:06:45.019Z,19.75
2022-10-23T20:09:11.980Z,19.76
2022-10-23T20:11:40.047Z,19.77
2022-10-23T20:14:07.654Z,19.73
2022-10-23T20:16:41.950Z,19.69
2022-10-23T20:19:14.646Z,19.75
2022-10-23T20:21:46.254Z,19.68
2022-10-23T20:24:15.233Z,19.66
2022-10-23T20:27:01.888Z,19.66
2022-10-23T20:29:31.168Z,19.65
2022-10-23T20:31:57.751Z,19.66
2022-10-23T20:34:27.197Z,19.58
2022-10-23T20:36:53.945Z,19.58
2022-10-23T20:39:26.736Z,19.64
2022-10-23T20:41:56.844Z,19.59
2022-10-23T20:44:24.074Z,19.49
2022-10-23T20:46:51.243Z,19.49
2022-10-23T20:49:19.262Z,19.51
2022-10-23T20:51:54.095Z,19.44
2022-10-23T20:54:24.241Z,19.54
2022-10-23T20:56:50.951Z,19.50
2022-10-23T20:59:18.825Z,19.53
2022-10-23T21:01:53.039Z,19.48
2022-10-23T21:04:22.915Z,19.41
2022-10-23T21:07:11.122Z,19.34
2022-10-23T21:09:39.362Z,19.36
2022-10-23T21:12:14.745Z,19.32
2022-10-23T21:14:41.829Z,19.36
2022-10-23T21:17:10.627Z,19.36
2022-10-23T21:19:41.151Z,19.37
2022-10-23T21:22:07.891Z,19.29
2022-10-23T21:24:34.534Z,19.41
2022-10-23T21:27:01.123Z,19.42
2022-10-23T21:29:27.722Z,19.41
2022-10-23T21:31:55.741Z,19.46
2022-10-23T21:34:24.075Z,19.35
2022-10-23T21:39:39.552Z,19.32
2022-10-23T21:42:06.097Z,19.31
2022-10-23T21:44:32.848Z,19.22
2022-10-23T21:47:02.244Z,19.22
2022-10-23T21:49:29.554Z,19.24
2022-10-23T21:51:56.313Z,19.30
2022-10-23T21:54:22.966Z,19.34
2022-10-23T21:56:54.142Z,19.37
2022-10-23T21:59:24.800Z,19.36
2022-10-23T22:01:52.716Z,19.33
2022-10-23T22:04:20.500Z,19.35
2022-10-23T22:06:52.350Z,19.31
2022-10-23T22:09:19.997Z,19.26
2022-10-23T22:11:49.327Z,19.24
2022-10-23T22:14:16.031Z,19.26
2022-10-23T22:16:42.648Z,19.33
2022-10-23T22:19:12.767Z,19.45
2022-10-23T22:21:40.513Z,19.39
2022-10-23T22:24:11.052Z,19.29
2022-10-23T22:26:43.464Z,19.40
2022-10-23T22:29:15.329Z,19.38
2022-10-23T22:31:45.495Z,19.29
2022-10-23T22:34:40.806Z,19.37
2022-10-23T22:37:09.502Z,19.39
2022-10-23T22:39:36.073Z,19.44
2022-10-23T22:42:04.963Z,19.49
2022-10-23T22:44:31.943Z,19.38
2022-10-23T22:47:06.856Z,19.31
2022-10-23T22:49:34.929Z,19.40
2022-10-23T22:52:02.647Z,19.37
2022-10-23T22:54:31.375Z,19.26
2022-10-23T22:56:58.372Z,19.33
2022-10-23T22:59:25.150Z,19.30
2022-10-23T23:01:51.821Z,19.30
2022-10-23T23:07:10.538Z,19.28
2022-10-23T23:09:42.545Z,19.17
2022-10-23T23:12:14.960Z,19.14
2022-10-23T23:14:42.844Z,19.27
2022-10-23T23:17:10.121Z,19.35
2022-10-23T23:19:37.083Z,19.25
2022-10-23T23:22:04.098Z,19.19
2022-10-23T23:24:33.709Z,19.19
2022-10-23T23:27:00.466Z,19.22
2022-10-23T23:29:28.369Z,19.17
2022-10-23T23:31:57.860Z,19.17
2022-10-23T23:34:27.436Z,19.09
2022-10-23T23:36:54.854Z,19.03
2022-10-23T23:39:21.424Z,19.08
2022-10-23T23:41:50.598Z,19.02
2022-10-23T23:44:17.558Z,19.10
2022-10-23T23:46:46.226Z,19.07
2022-10-23T23:49:13.396Z,19.07
2022-10-23T23:51:40.051Z,19.05
2022-10-23T23:54:06.777Z,19.00
2022-10-23T23:56:33.696Z,19.02
2022-10-23T23:59:01.910Z,19.14
